Time;durP1;ratioP1;P1;durP2;ratioP2;P2;SDS_P1;SDS_P2;PMS_P1;PMS_P2;Temp;Humidity;BMP_temperature;BMP_pressure;BME280_temperature;BME280_humidity;BME280_pressure;Samples;Min_cycle;Max_cycle;Signal;HPM_P1;HPM_P2
2023/12/13 00:00:23;;;;;;;3.95;1.48;;;;;;;6.73;100.00;99431.56;5010289;28;20029;-74
2023/12/13 00:02:48;;;;;;;2.20;1.10;;;;;;;6.69;100.00;99439.78;5002167;28;20424;-75
2023/12/13 00:05:14;;;;;;;3.22;1.20;;;;;;;6.74;100.00;99428.03;5003631;28;20114;-74
2023/12/13 00:07:39;;;;;;;4.13;1.30;;;;;;;6.64;100.00;99427.38;5004371;28;20107;-74
2023/12/13 00:10:05;;;;;;;4.18;1.00;;;;;;;6.66;100.00;99420.28;5005769;28;20048;-73
2023/12/13 00:12:30;;;;;;;2.60;1.10;;;;;;;6.62;100.00;99417.25;5005968;28;20030;-72
2023/12/13 00:14:56;;;;;;;5.70;1.10;;;;;;;6.63;100.00;99425.78;5011183;28;20057;-73
2023/12/13 00:17:21;;;;;;;6.22;1.35;;;;;;;6.68;100.00;99420.94;5007796;28;20046;-75
2023/12/13 00:19:47;;;;;;;5.38;1.40;;;;;;;6.62;100.00;99429.31;5006705;28;20030;-73
2023/12/13 00:22:12;;;;;;;4.05;1.05;;;;;;;6.57;100.00;99429.00;5018649;28;20030;-74
2023/12/13 00:24:38;;;;;;;5.70;1.15;;;;;;;6.53;100.00;99420.00;5008893;28;20581;-75
2023/12/13 00:27:03;;;;;;;5.47;1.75;;;;;;;6.68;100.00;99422.72;5003721;28;20034;-74
2023/12/13 00:29:29;;;;;;;6.57;1.60;;;;;;;6.55;100.00;99418.84;4997344;28;20102;-73
2023/12/13 00:31:54;;;;;;;4.55;1.92;;;;;;;6.56;100.00;99424.81;5006053;28;20037;-73
2023/12/13 00:34:20;;;;;;;6.78;1.70;;;;;;;6.56;100.00;99422.25;5005007;28;20023;-73
2023/12/13 00:36:45;;;;;;;4.90;1.48;;;;;;;6.50;100.00;99422.88;5012419;28;20516;-73
2023/12/13 00:39:11;;;;;;;3.10;1.30;;;;;;;6.50;100.00;99421.13;5002769;28;20485;-74
2023/12/13 00:41:37;;;;;;;2.90;1.17;;;;;;;6.49;100.00;99416.94;5002529;28;20072;-73
2023/12/13 00:44:03;;;;;;;7.18;1.33;;;;;;;6.54;100.00;99412.09;5008645;28;20901;-73
2023/12/13 00:46:29;;;;;;;10.23;1.73;;;;;;;6.53;100.00;99413.06;5004110;28;20050;-73
2023/12/13 00:48:54;;;;;;;7.45;1.30;;;;;;;6.65;100.00;99400.66;5001374;28;20477;-74
2023/12/13 00:51:22;;;;;;;7.57;2.10;;;;;;;6.61;100.00;99409.66;4999538;28;20033;-73
2023/12/13 00:53:48;;;;;;;6.80;1.60;;;;;;;6.58;100.00;99407.44;5001482;28;20038;-74
2023/12/13 00:56:14;;;;;;;6.55;1.40;;;;;;;6.60;100.00;99415.81;4999531;28;20052;-73
2023/12/13 00:58:40;;;;;;;8.95;1.85;;;;;;;6.61;100.00;99415.66;5002296;28;20488;-74
2023/12/13 01:01:06;;;;;;;12.27;1.85;;;;;;;6.64;100.00;99409.34;5001820;28;20087;-73
2023/12/13 01:03:32;;;;;;;7.75;2.13;;;;;;;6.66;100.00;99414.34;5005508;28;20578;-73
2023/12/13 01:05:57;;;;;;;9.52;1.25;;;;;;;6.64;100.00;99411.94;4998798;28;20116;-73
2023/12/13 01:08:22;;;;;;;8.13;2.17;;;;;;;6.53;100.00;99415.63;5007506;28;20049;-74
2023/12/13 01:10:48;;;;;;;4.55;1.63;;;;;;;6.48;100.00;99415.34;5005805;28;20160;-73
2023/12/13 01:13:13;;;;;;;7.65;2.40;;;;;;;6.54;100.00;99413.88;5005186;28;20034;-74
2023/12/13 01:15:39;;;;;;;5.80;1.85;;;;;;;6.51;100.00;99416.78;5013819;28;20038;-73
2023/12/13 01:18:04;;;;;;;3.55;1.42;;;;;;;6.47;100.00;99407.78;5008645;28;20030;-73
2023/12/13 01:20:30;;;;;;;5.30;2.00;;;;;;;6.45;100.00;99412.28;5008632;28;20033;-73
2023/12/13 01:22:55;;;;;;;7.20;1.90;;;;;;;6.46;100.00;99411.31;5006560;28;20069;-75
2023/12/13 01:25:21;;;;;;;6.72;1.90;;;;;;;6.45;100.00;99413.09;5008648;28;20038;-73
2023/12/13 01:27:46;;;;;;;8.50;1.70;;;;;;;6.58;100.00;99410.00;5006367;28;20631;-74
2023/12/13 01:30:12;;;;;;;7.18;1.52;;;;;;;6.49;100.00;99406.63;5011244;28;20040;-73
2023/12/13 01:32:37;;;;;;;8.15;1.88;;;;;;;6.51;100.00;99411.63;5007177;28;20069;-74
2023/12/13 01:35:04;;;;;;;8.77;2.13;;;;;;;6.66;100.00;99412.56;5010565;28;20056;-74
2023/12/13 01:37:29;;;;;;;5.82;1.60;;;;;;;6.56;100.00;99419.69;5006201;28;20108;-73
2023/12/13 01:39:56;;;;;;;5.45;2.00;;;;;;;6.58;100.00;99420.31;5004715;28;20038;-73
2023/12/13 01:42:23;;;;;;;7.00;2.05;;;;;;;6.59;100.00;99421.91;5004771;28;20033;-74
2023/12/13 01:44:49;;;;;;;12.60;2.95;;;;;;;6.55;100.00;99424.00;5006528;28;21482;-73
2023/12/13 01:47:15;;;;;;;8.20;1.98;;;;;;;6.52;100.00;99423.56;5005280;28;20109;-74
2023/12/13 01:49:41;;;;;;;4.78;1.85;;;;;;;6.61;100.00;99425.13;5004581;28;20030;-73
2023/12/13 01:52:07;;;;;;;6.05;1.77;;;;;;;6.66;100.00;99417.72;5006988;28;20496;-73
2023/12/13 01:54:35;;;;;;;16.35;2.28;;;;;;;6.72;100.00;99416.25;5009829;28;20086;-73
2023/12/13 01:57:02;;;;;;;10.85;1.70;;;;;;;6.71;100.00;99414.66;5011667;28;20132;-74
2023/12/13 01:59:28;;;;;;;9.07;1.77;;;;;;;6.69;100.00;99417.41;5009889;28;20029;-74
2023/12/13 02:01:58;;;;;;;8.80;1.85;;;;;;;6.69;100.00;99422.56;5010451;28;20037;-73
2023/12/13 02:04:28;;;;;;;11.90;1.98;;;;;;;6.79;100.00;99415.44;5003783;28;20454;-74
2023/12/13 02:06:54;;;;;;;8.85;2.40;;;;;;;6.82;100.00;99412.53;5001702;28;20044;-74
2023/12/13 02:09:20;;;;;;;10.43;1.73;;;;;;;6.74;100.00;99406.59;5002961;28;20044;-74
2023/12/13 02:11:46;;;;;;;13.75;2.00;;;;;;;6.75;100.00;99408.22;5007271;28;20133;-75
2023/12/13 02:14:13;;;;;;;13.30;2.33;;;;;;;6.75;100.00;99400.47;5004143;28;20030;-74
2023/12/13 02:16:38;;;;;;;9.75;1.45;;;;;;;6.69;100.00;99411.44;5006353;28;20125;-73
2023/12/13 02:19:04;;;;;;;17.33;2.20;;;;;;;6.73;100.00;99405.78;5008285;28;20048;-74
2023/12/13 02:21:30;;;;;;;12.68;1.90;;;;;;;6.74;100.00;99411.75;4991082;28;20088;-74
2023/12/13 02:24:03;;;;;;;9.38;2.17;;;;;;;6.72;100.00;99401.59;5012421;28;20065;-75
2023/12/13 02:26:29;;;;;;;9.02;1.55;;;;;;;6.76;100.00;99405.47;5014159;28;20511;-74
2023/12/13 02:28:54;;;;;;;8.27;2.08;;;;;;;6.75;100.00;99410.78;5010005;28;20072;-74
2023/12/13 02:31:21;;;;;;;8.32;1.42;;;;;;;6.76;100.00;99404.66;5010877;28;20508;-74
2023/12/13 02:33:46;;;;;;;7.28;1.83;;;;;;;6.75;100.00;99401.28;4997639;28;20417;-74
2023/12/13 02:36:12;;;;;;;7.13;1.65;;;;;;;6.72;100.00;99399.03;5010519;28;20045;-74
2023/12/13 02:38:40;;;;;;;12.80;3.00;;;;;;;6.77;100.00;99399.34;5000565;28;20562;-74
2023/12/13 02:41:05;;;;;;;7.53;1.45;;;;;;;6.78;100.00;99398.38;5005233;28;20376;-75
2023/12/13 02:43:31;;;;;;;4.93;1.60;;;;;;;6.71;100.00;99400.00;5011735;28;20028;-74
2023/12/13 02:45:56;;;;;;;4.82;1.50;;;;;;;6.70;100.00;99393.22;4991418;28;20519;-74
2023/12/13 02:48:22;;;;;;;10.75;1.92;;;;;;;6.77;100.00;99390.81;5014000;28;20079;-75
2023/12/13 02:50:48;;;;;;;7.13;1.63;;;;;;;6.73;100.00;99390.34;4995535;28;20029;-74
2023/12/13 02:53:14;;;;;;;14.60;2.05;;;;;;;6.80;100.00;99404.16;5010731;28;20045;-74
2023/12/13 02:55:39;;;;;;;12.93;2.42;;;;;;;6.75;100.00;99392.75;5008345;28;20030;-74
2023/12/13 02:58:05;;;;;;;12.60;2.65;;;;;;;6.74;100.00;99391.97;5013062;28;20046;-74
2023/12/13 03:00:30;;;;;;;11.65;1.88;;;;;;;6.80;100.00;99388.72;5011627;28;20117;-74
2023/12/13 03:02:57;;;;;;;6.93;1.60;;;;;;;6.72;100.00;99382.75;5010860;28;20038;-73
2023/12/13 03:05:23;;;;;;;7.85;1.85;;;;;;;6.76;100.00;99384.03;5015501;28;20492;-73
2023/12/13 03:07:48;;;;;;;14.52;3.05;;;;;;;6.91;100.00;99386.72;5012295;28;20036;-74
2023/12/13 03:10:14;;;;;;;7.05;1.77;;;;;;;6.85;100.00;99383.03;5011009;28;20436;-74
2023/12/13 03:12:39;;;;;;;11.45;1.77;;;;;;;6.87;100.00;99381.09;5009781;28;20496;-74
2023/12/13 03:15:05;;;;;;;13.85;1.63;;;;;;;6.87;100.00;99378.53;5011744;28;20503;-74
2023/12/13 03:17:31;;;;;;;10.45;2.15;;;;;;;6.98;100.00;99377.38;5005305;28;20113;-74
2023/12/13 03:19:56;;;;;;;7.90;1.55;;;;;;;6.94;100.00;99370.94;4999344;28;20054;-73
2023/12/13 03:22:21;;;;;;;9.77;1.98;;;;;;;6.87;100.00;99375.16;5017853;28;20042;-74
2023/12/13 03:24:47;;;;;;;9.40;2.30;;;;;;;6.82;100.00;99368.72;5007892;28;20026;-73
2023/12/13 03:27:12;;;;;;;12.25;2.28;;;;;;;6.88;100.00;99376.78;5014216;28;20397;-74
2023/12/13 03:29:38;;;;;;;11.15;2.15;;;;;;;7.00;100.00;99370.28;5024111;28;20477;-73
2023/12/13 03:32:04;;;;;;;9.73;1.80;;;;;;;6.98;100.00;99367.06;5013350;28;20066;-73
2023/12/13 03:34:29;;;;;;;11.85;2.15;;;;;;;6.97;100.00;99368.84;5014409;28;20075;-74
2023/12/13 03:36:55;;;;;;;17.15;2.10;;;;;;;6.92;100.00;99367.72;4999141;28;20025;-74
2023/12/13 03:39:20;;;;;;;22.17;2.45;;;;;;;6.90;100.00;99369.69;5009223;28;20042;-73
2023/12/13 03:41:45;;;;;;;11.20;2.28;;;;;;;7.04;100.00;99370.75;5011546;28;20038;-74
2023/12/13 03:44:11;;;;;;;9.73;1.90;;;;;;;6.95;100.00;99362.22;5009911;28;20034;-73
2023/12/13 03:46:36;;;;;;;12.40;2.40;;;;;;;6.93;100.00;99365.00;5011393;28;20026;-74
2023/12/13 03:49:02;;;;;;;14.95;3.03;;;;;;;6.90;100.00;99359.38;5012106;28;20493;-74
2023/12/13 03:51:29;;;;;;;13.45;3.30;;;;;;;6.89;100.00;99363.69;5008916;28;20034;-74
2023/12/13 03:53:54;;;;;;;15.20;2.20;;;;;;;7.01;100.00;99366.75;5008816;28;20033;-75
2023/12/13 03:56:20;;;;;;;11.23;2.10;;;;;;;6.99;100.00;99364.31;5014695;28;20034;-75
2023/12/13 03:58:45;;;;;;;14.43;3.53;;;;;;;6.99;100.00;99366.09;4996176;28;20513;-74
2023/12/13 04:01:11;;;;;;;12.65;2.97;;;;;;;7.04;100.00;99356.06;5016235;28;20037;-74
2023/12/13 04:03:36;;;;;;;10.65;2.13;;;;;;;7.04;100.00;99350.91;5019141;28;20037;-74
2023/12/13 04:06:03;;;;;;;9.70;1.50;;;;;;;7.07;100.00;99360.09;5008404;28;20069;-74
2023/12/13 04:08:28;;;;;;;13.07;2.03;;;;;;;7.16;100.00;99354.75;5016466;28;20033;-74
2023/12/13 04:10:54;;;;;;;20.67;2.35;;;;;;;7.14;100.00;99354.09;5013879;28;20527;-74
2023/12/13 04:13:19;;;;;;;11.95;2.40;;;;;;;7.09;100.00;99353.00;4996334;28;20037;-73
2023/12/13 04:15:45;;;;;;;10.57;2.28;;;;;;;7.09;100.00;99351.22;5004853;28;20041;-74
2023/12/13 04:18:11;;;;;;;8.73;1.77;;;;;;;7.06;100.00;99359.28;5008780;28;20034;-74
2023/12/13 04:20:36;;;;;;;20.30;2.30;;;;;;;7.05;100.00;99355.13;5009899;28;20088;-74
2023/12/13 04:23:02;;;;;;;20.38;2.75;;;;;;;7.12;100.00;99352.66;5010360;28;20038;-74
2023/12/13 04:25:27;;;;;;;17.98;2.53;;;;;;;7.10;100.00;99349.44;5013853;28;20128;-75
2023/12/13 04:27:52;;;;;;;10.40;2.05;;;;;;;7.09;100.00;99350.44;5005385;28;20072;-73
2023/12/13 04:30:18;;;;;;;11.73;2.75;;;;;;;7.16;100.00;99353.94;5015101;28;20048;-74
2023/12/13 04:32:43;;;;;;;16.00;2.38;;;;;;;7.13;100.00;99354.28;5013105;28;20034;-74
2023/12/13 04:35:09;;;;;;;13.90;2.97;;;;;;;7.19;100.00;99345.84;5013542;28;20030;-74
2023/12/13 04:37:36;;;;;;;15.15;3.22;;;;;;;7.21;100.00;99341.34;5010105;28;20065;-74
2023/12/13 04:40:02;;;;;;;16.00;3.53;;;;;;;7.25;100.00;99341.78;5024244;28;20034;-74
2023/12/13 04:42:28;;;;;;;18.70;4.35;;;;;;;7.22;100.00;99346.31;5011551;28;20325;-74
2023/12/13 04:44:54;;;;;;;18.17;3.95;;;;;;;7.20;100.00;99335.38;5009258;28;20405;-74
2023/12/13 04:47:19;;;;;;;13.70;3.20;;;;;;;7.17;100.00;99340.88;5009533;28;20049;-73
2023/12/13 04:49:45;;;;;;;18.00;3.83;;;;;;;7.19;100.00;99341.50;5009211;28;20602;-73
2023/12/13 04:52:10;;;;;;;15.95;3.38;;;;;;;7.17;100.00;99350.38;5008330;28;20030;-73
2023/12/13 04:54:37;;;;;;;15.35;2.85;;;;;;;7.19;100.00;99343.28;5008377;28;20534;-73
2023/12/13 04:57:03;;;;;;;17.40;2.40;;;;;;;7.28;100.00;99344.03;5011349;28;20042;-73
2023/12/13 04:59:29;;;;;;;15.75;2.50;;;;;;;7.29;100.00;99346.47;5008821;28;20022;-73
2023/12/13 05:01:54;;;;;;;13.93;3.22;;;;;;;7.26;100.00;99346.78;5013262;28;20048;-74
2023/12/13 05:04:19;;;;;;;23.98;2.25;;;;;;;7.32;100.00;99337.56;4991503;28;20036;-74
2023/12/13 05:06:45;;;;;;;14.82;2.53;;;;;;;7.31;100.00;99338.53;5007291;28;20034;-73
2023/12/13 05:09:10;;;;;;;18.42;2.50;;;;;;;7.27;100.00;99329.53;5007439;28;20404;-73
2023/12/13 05:11:36;;;;;;;15.13;2.60;;;;;;;7.21;100.00;99337.00;5013257;28;20092;-74
2023/12/13 05:14:03;;;;;;;18.38;2.85;;;;;;;7.30;100.00;99335.16;5007976;28;20030;-73
2023/12/13 05:16:28;;;;;;;13.18;2.50;;;;;;;7.25;100.00;99334.06;5011447;28;20123;-73
2023/12/13 05:18:54;;;;;;;14.70;2.90;;;;;;;7.18;100.00;99331.38;5008475;28;20029;-75
2023/12/13 05:21:19;;;;;;;15.63;2.53;;;;;;;7.30;100.00;99330.00;5011333;28;20061;-73
2023/12/13 05:23:45;;;;;;;19.15;2.65;;;;;;;7.27;100.00;99329.53;5007965;28;20048;-73
2023/12/13 05:26:10;;;;;;;15.65;3.15;;;;;;;7.24;100.00;99329.91;4991773;28;20041;-74
2023/12/13 05:28:36;;;;;;;17.58;3.20;;;;;;;7.18;100.00;99328.78;5011971;28;20033;-73
2023/12/13 05:31:01;;;;;;;10.75;3.17;;;;;;;7.26;100.00;99333.91;5012413;28;20034;-73
2023/12/13 05:33:27;;;;;;;19.45;3.20;;;;;;;7.19;100.00;99331.19;5008937;28;20066;-73
2023/12/13 05:35:52;;;;;;;16.10;3.28;;;;;;;7.30;100.00;99329.22;4995148;28;20042;-73
2023/12/13 05:38:17;;;;;;;11.88;3.13;;;;;;;7.26;100.00;99333.09;4995117;28;20061;-74
2023/12/13 05:40:43;;;;;;;21.65;3.97;;;;;;;7.29;100.00;99327.59;5010873;28;20123;-73
2023/12/13 05:43:08;;;;;;;11.80;2.53;;;;;;;7.24;100.00;99328.09;4998162;28;20033;-73
2023/12/13 05:45:34;;;;;;;13.45;3.58;;;;;;;7.28;100.00;99326.78;5008787;28;20030;-75
2023/12/13 05:47:59;;;;;;;17.02;3.13;;;;;;;7.31;100.00;99331.63;5007182;28;20065;-74
2023/12/13 05:50:24;;;;;;;14.35;3.35;;;;;;;7.23;100.00;99329.06;5008893;28;20042;-73
2023/12/13 05:52:50;;;;;;;26.45;3.40;;;;;;;7.22;100.00;99323.13;4992599;28;20052;-73
2023/12/13 05:55:16;;;;;;;29.25;3.08;;;;;;;7.19;100.00;99331.19;5013838;28;20046;-74
2023/12/13 05:57:41;;;;;;;9.88;2.58;;;;;;;7.16;100.00;99325.59;5010813;28;20037;-74
2023/12/13 06:00:07;;;;;;;14.77;3.90;;;;;;;7.17;100.00;99330.56;4991884;28;20068;-75
2023/12/13 06:02:36;;;;;;;19.92;4.10;;;;;;;7.16;100.00;99333.31;5010317;28;20038;-73
2023/12/13 06:05:03;;;;;;;18.33;4.05;;;;;;;7.19;100.00;99331.19;5008162;28;20080;-74
2023/12/13 06:07:29;;;;;;;21.73;2.50;;;;;;;7.13;100.00;99336.22;5009099;28;20030;-73
2023/12/13 06:09:55;;;;;;;17.60;3.00;;;;;;;7.09;100.00;99332.38;4997677;28;20037;-74
2023/12/13 06:12:20;;;;;;;21.02;2.85;;;;;;;7.15;100.00;99339.44;5006006;28;20091;-73
2023/12/13 06:14:45;;;;;;;12.85;2.50;;;;;;;7.13;100.00;99343.97;5010327;28;20145;-74
2023/12/13 06:17:11;;;;;;;16.73;2.67;;;;;;;7.11;100.00;99344.13;5010961;28;20022;-73
2023/12/13 06:19:36;;;;;;;15.73;2.53;;;;;;;7.13;100.00;99342.19;5008192;28;20095;-73
2023/12/13 06:22:02;;;;;;;18.90;2.88;;;;;;;7.13;100.00;99338.81;5009807;28;20115;-74
2023/12/13 06:24:28;;;;;;;17.10;3.03;;;;;;;7.09;100.00;99345.28;5009594;28;20440;-74
2023/12/13 06:26:54;;;;;;;13.82;2.53;;;;;;;7.06;100.00;99343.81;5013275;28;20034;-74
2023/12/13 06:29:19;;;;;;;14.43;3.13;;;;;;;7.04;100.00;99347.53;5012684;28;20489;-74
2023/12/13 06:31:45;;;;;;;13.57;2.97;;;;;;;7.02;100.00;99351.06;5009983;28;20072;-74
2023/12/13 06:34:10;;;;;;;19.02;3.20;;;;;;;7.15;100.00;99342.81;5008283;28;20055;-74
2023/12/13 06:36:36;;;;;;;16.35;3.08;;;;;;;7.07;100.00;99339.50;5002737;28;20034;-74
2023/12/13 06:39:04;;;;;;;14.40;2.92;;;;;;;7.05;100.00;99339.66;5006192;28;20038;-74
2023/12/13 06:41:31;;;;;;;18.25;2.65;;;;;;;7.05;100.00;99338.84;5010300;28;20516;-74
2023/12/13 06:43:56;;;;;;;19.08;3.00;;;;;;;7.08;100.00;99341.88;5007563;28;20049;-74
2023/12/13 06:46:23;;;;;;;18.67;3.20;;;;;;;7.08;100.00;99341.06;5004633;28;20044;-74
2023/12/13 06:48:48;;;;;;;27.42;4.55;;;;;;;7.09;100.00;99347.84;5007747;28;20026;-73
2023/12/13 06:51:14;;;;;;;16.77;2.75;;;;;;;7.15;100.00;99347.97;5004170;28;20033;-73
2023/12/13 06:53:39;;;;;;;24.48;4.97;;;;;;;7.15;100.00;99349.75;5003086;28;20416;-74
2023/12/13 06:56:05;;;;;;;64.38;26.70;;;;;;;7.13;100.00;99349.13;5006070;28;20046;-74
2023/12/13 06:58:31;;;;;;;40.45;14.95;;;;;;;7.13;100.00;99349.91;5005032;28;20516;-74
2023/12/13 07:00:56;;;;;;;18.60;4.80;;;;;;;7.27;100.00;99350.16;5003183;28;20046;-74
2023/12/13 07:03:22;;;;;;;17.42;3.60;;;;;;;7.20;100.00;99348.28;5013073;28;20459;-75
2023/12/13 07:05:47;;;;;;;16.02;3.50;;;;;;;7.17;100.00;99340.06;5012329;28;20431;-75
2023/12/13 07:08:13;;;;;;;16.23;3.20;;;;;;;7.12;100.00;99340.59;5008516;28;20452;-73
2023/12/13 07:10:39;;;;;;;17.48;3.22;;;;;;;7.11;100.00;99351.84;5015721;28;20041;-73
2023/12/13 07:13:04;;;;;;;14.85;3.72;;;;;;;7.08;100.00;99347.03;5011227;28;20046;-74
2023/12/13 07:15:30;;;;;;;14.30;4.05;;;;;;;7.09;100.00;99346.06;5010056;28;20050;-73
2023/12/13 07:17:55;;;;;;;19.52;4.18;;;;;;;7.11;100.00;99346.69;5008405;28;20041;-73
2023/12/13 07:20:21;;;;;;;15.45;3.22;;;;;;;7.09;100.00;99342.69;5013046;28;20107;-73
2023/12/13 07:22:49;;;;;;;12.00;2.90;;;;;;;7.06;100.00;99343.03;5014393;28;20034;-73
2023/12/13 07:25:15;;;;;;;17.65;2.95;;;;;;;7.03;100.00;99349.31;5011268;28;20042;-73
2023/12/13 07:27:40;;;;;;;13.35;3.03;;;;;;;7.01;100.00;99349.50;5011675;28;20026;-73
2023/12/13 07:30:06;;;;;;;13.27;2.97;;;;;;;6.98;100.00;99352.38;5015483;28;20496;-74
2023/12/13 07:32:33;;;;;;;12.70;2.78;;;;;;;6.96;100.00;99349.19;5009257;28;20064;-74
2023/12/13 07:34:58;;;;;;;14.40;3.42;;;;;;;6.91;100.00;99354.06;5011322;28;20045;-73
2023/12/13 07:37:24;;;;;;;27.40;4.15;;;;;;;6.88;100.00;99351.81;5015005;28;20362;-74
2023/12/13 07:39:49;;;;;;;18.50;3.60;;;;;;;6.87;100.00;99355.34;5012899;28;20654;-73
2023/12/13 07:42:15;;;;;;;14.57;2.90;;;;;;;6.89;100.00;99365.47;5010280;28;20034;-74
2023/12/13 07:44:42;;;;;;;12.65;3.28;;;;;;;6.86;100.00;99363.25;5011550;28;20029;-73
2023/12/13 07:47:07;;;;;;;12.55;2.92;;;;;;;6.85;100.00;99364.22;5008082;28;20104;-74
2023/12/13 07:49:33;;;;;;;15.43;3.00;;;;;;;6.83;100.00;99359.22;5014340;28;20034;-74
2023/12/13 07:51:58;;;;;;;21.83;3.25;;;;;;;6.82;100.00;99361.00;5008662;28;20504;-74
2023/12/13 07:54:24;;;;;;;35.30;11.93;;;;;;;6.85;100.00;99366.78;5013862;28;20091;-74
2023/12/13 07:56:52;;;;;;;28.08;8.73;;;;;;;6.82;100.00;99373.88;5013873;28;20034;-74
2023/12/13 07:59:17;;;;;;;23.23;6.38;;;;;;;6.80;100.00;99373.25;5011452;28;20042;-75
2023/12/13 08:01:43;;;;;;;16.15;5.20;;;;;;;6.82;100.00;99370.50;5009402;28;20042;-74
2023/12/13 08:04:08;;;;;;;12.68;4.65;;;;;;;6.83;100.00;99374.69;5028426;28;20416;-75
2023/12/13 08:06:34;;;;;;;19.55;4.00;;;;;;;6.84;100.00;99376.31;5008618;28;20433;-74
2023/12/13 08:08:59;;;;;;;9.73;3.35;;;;;;;6.86;100.00;99379.50;5009440;28;20049;-74
2023/12/13 08:11:25;;;;;;;19.65;3.15;;;;;;;6.86;100.00;99381.28;5007682;28;20033;-75
2023/12/13 08:13:51;;;;;;;11.32;4.35;;;;;;;6.86;100.00;99378.72;4988457;28;20035;-74
2023/12/13 08:16:17;;;;;;;24.02;5.78;;;;;;;6.98;100.00;99374.78;5005473;28;20123;-74
2023/12/13 08:18:42;;;;;;;22.77;5.13;;;;;;;7.05;100.00;99374.94;5007153;28;20148;-74
2023/12/13 08:21:08;;;;;;;15.25;3.78;;;;;;;7.09;100.00;99371.84;4991026;28;20030;-76
2023/12/13 08:23:34;;;;;;;18.90;3.78;;;;;;;7.04;100.00;99366.38;5005592;28;20127;-74
2023/12/13 08:25:59;;;;;;;21.23;3.83;;;;;;;7.06;100.00;99363.63;5016812;28;20053;-75
2023/12/13 08:28:25;;;;;;;18.38;3.20;;;;;;;7.15;100.00;99365.22;4999096;28;20039;-74
2023/12/13 08:30:50;;;;;;;14.80;2.67;;;;;;;7.12;100.00;99371.53;5010967;28;20041;-74
2023/12/13 08:33:15;;;;;;;18.33;2.78;;;;;;;7.13;100.00;99369.75;5010528;28;20038;-75
2023/12/13 08:35:41;;;;;;;10.70;2.75;;;;;;;7.16;100.00;99369.41;5005519;28;20042;-74
2023/12/13 08:38:06;;;;;;;19.02;3.33;;;;;;;7.27;100.00;99373.38;5007528;28;20030;-74
2023/12/13 08:40:32;;;;;;;16.98;2.47;;;;;;;7.25;100.00;99373.53;5008230;28;20037;-74
2023/12/13 08:42:57;;;;;;;15.50;2.15;;;;;;;7.32;100.00;99373.66;4991376;28;20403;-74
2023/12/13 08:45:23;;;;;;;17.70;4.85;;;;;;;7.41;100.00;99364.91;5002945;28;20565;-74
2023/12/13 08:47:48;;;;;;;10.77;2.95;;;;;;;7.43;100.00;99373.28;5007545;28;20408;-74
2023/12/13 08:50:14;;;;;;;15.48;2.33;;;;;;;7.52;100.00;99374.84;5012930;28;20382;-74
2023/12/13 08:52:40;;;;;;;16.08;2.33;;;;;;;7.48;100.00;99377.94;5004018;28;20091;-74
2023/12/13 08:55:10;;;;;;;15.30;2.30;;;;;;;7.46;100.00;99372.97;5006722;28;20080;-74
2023/12/13 08:57:37;;;;;;;24.38;2.95;;;;;;;7.55;100.00;99371.13;5014211;28;20033;-74
2023/12/13 09:00:06;;;;;;;16.27;2.53;;;;;;;7.51;100.00;99375.81;5018497;28;20048;-74
2023/12/13 09:02:32;;;;;;;14.18;3.33;;;;;;;7.55;100.00;99374.53;5013754;28;20083;-74
2023/12/13 09:04:57;;;;;;;21.88;4.38;;;;;;;7.59;100.00;99383.50;5008996;28;20053;-74
2023/12/13 09:07:23;;;;;;;17.15;3.22;;;;;;;7.67;100.00;99381.88;5011503;28;20037;-74
2023/12/13 09:09:48;;;;;;;21.67;2.65;;;;;;;7.68;100.00;99389.41;5013312;28;20061;-74
2023/12/13 09:12:13;;;;;;;19.30;3.30;;;;;;;7.58;100.00;99381.91;5014263;28;20465;-73
2023/12/13 09:14:40;;;;;;;9.65;2.15;;;;;;;7.66;100.00;99386.19;5003094;28;20052;-75
2023/12/13 09:17:05;;;;;;;13.00;1.98;;;;;;;7.52;100.00;99394.69;5008583;28;20037;-74
2023/12/13 09:19:31;;;;;;;13.68;3.20;;;;;;;7.52;100.00;99394.69;5013610;28;20053;-76
2023/12/13 09:21:56;;;;;;;17.35;3.00;;;;;;;7.52;100.00;99392.13;5006628;28;20041;-74
2023/12/13 09:24:22;;;;;;;18.70;3.08;;;;;;;7.51;100.00;99398.22;5007456;28;20030;-74
2023/12/13 09:26:49;;;;;;;13.27;2.88;;;;;;;7.51;100.00;99396.44;5012298;28;20578;-73
2023/12/13 09:29:14;;;;;;;12.00;3.05;;;;;;;7.60;100.00;99405.75;5007808;28;20038;-74
2023/12/13 09:31:39;;;;;;;12.20;3.08;;;;;;;7.54;100.00;99408.22;5013626;28;20033;-74
2023/12/13 09:34:05;;;;;;;13.75;3.10;;;;;;;7.57;100.00;99410.44;5021598;28;20088;-74
2023/12/13 09:36:30;;;;;;;14.15;3.67;;;;;;;7.55;100.00;99415.78;5007028;28;20061;-74
2023/12/13 09:38:56;;;;;;;15.00;3.13;;;;;;;7.52;100.00;99421.28;5006275;28;20048;-74
2023/12/13 09:41:30;;;;;;;13.00;2.95;;;;;;;7.62;100.00;99422.84;5010937;28;20029;-74
2023/12/13 09:43:57;;;;;;;10.10;2.00;;;;;;;7.57;100.00;99426.75;5006064;28;20113;-74
2023/12/13 09:46:25;;;;;;;14.77;2.65;;;;;;;7.59;100.00;99418.81;5007559;28;20038;-74
2023/12/13 09:48:51;;;;;;;9.70;1.70;;;;;;;7.56;100.00;99421.75;5010083;28;20163;-75
2023/12/13 09:51:19;;;;;;;13.23;1.60;;;;;;;7.50;100.00;99428.38;5008040;28;20034;-75
2023/12/13 09:53:49;;;;;;;4.72;1.30;;;;;;;7.48;100.00;99432.09;5003747;28;20120;-74
2023/12/13 09:56:15;;;;;;;5.18;1.00;;;;;;;7.43;100.00;99432.59;4992519;28;20179;-74
2023/12/13 09:58:40;;;;;;;10.55;1.27;;;;;;;7.44;100.00;99435.97;5012884;28;20524;-74
2023/12/13 10:01:14;;;;;;;4.82;1.13;;;;;;;7.55;100.00;99440.75;5004701;28;20037;-74
2023/12/13 10:03:40;;;;;;;8.10;1.13;;;;;;;7.60;100.00;99441.06;5009961;28;20117;-74
2023/12/13 10:06:07;;;;;;;2.65;1.00;;;;;;;7.57;100.00;99438.81;5004877;28;22252;-73
2023/12/13 10:08:33;;;;;;;7.57;1.08;;;;;;;7.68;100.00;99440.22;5014230;28;20111;-73
2023/12/13 10:10:58;;;;;;;7.25;1.75;;;;;;;7.53;100.00;99447.88;4991850;28;20042;-74
2023/12/13 10:13:25;;;;;;;3.67;0.57;;;;;;;7.55;100.00;99440.75;5014992;28;20038;-74
2023/12/13 10:15:51;;;;;;;6.45;0.80;;;;;;;7.46;100.00;99450.34;5003877;28;20038;-74
2023/12/13 10:18:17;;;;;;;4.45;1.00;;;;;;;7.41;100.00;99448.25;5006320;28;20520;-75
2023/12/13 10:20:44;;;;;;;2.53;0.80;;;;;;;7.39;100.00;99452.78;5005873;28;20041;-74
2023/12/13 10:23:10;;;;;;;2.25;0.60;;;;;;;7.38;100.00;99455.50;5007069;28;20108;-74
2023/12/13 10:25:37;;;;;;;3.00;0.73;;;;;;;7.43;100.00;99449.88;4995642;28;20038;-74
2023/12/13 10:28:04;;;;;;;2.50;0.75;;;;;;;7.46;100.00;99452.91;5014311;28;20092;-75
2023/12/13 10:30:29;;;;;;;0.85;0.40;;;;;;;7.36;100.00;99455.69;5004750;28;20026;-74
2023/12/13 10:32:55;;;;;;;2.05;0.40;;;;;;;7.33;100.00;99444.91;5007086;28;20535;-74
2023/12/13 10:35:22;;;;;;;0.85;0.30;;;;;;;7.32;100.00;99451.81;5010998;28;20034;-74
2023/12/13 10:37:48;;;;;;;2.28;0.50;;;;;;;7.33;100.00;99453.44;5008365;28;20442;-74
2023/12/13 10:40:17;;;;;;;1.58;0.50;;;;;;;7.33;100.00;99453.44;5009882;28;20041;-74
2023/12/13 10:42:45;;;;;;;3.13;0.40;;;;;;;7.34;100.00;99449.09;5009343;28;20061;-74
2023/12/13 10:45:11;;;;;;;1.67;0.55;;;;;;;7.38;100.00;99452.94;5004553;28;20030;-76
2023/12/13 10:47:43;;;;;;;3.20;0.70;;;;;;;7.38;100.00;99451.19;5006273;28;20139;-76
2023/12/13 10:50:10;;;;;;;1.13;0.50;;;;;;;7.40;100.00;99451.00;5011924;28;20121;-76
2023/12/13 10:52:38;;;;;;;2.00;0.40;;;;;;;7.40;100.00;99444.06;5010249;28;20542;-76
2023/12/13 10:55:06;;;;;;;2.10;0.50;;;;;;;7.44;100.00;99448.88;4996079;28;20546;-76
2023/12/13 10:57:33;;;;;;;1.63;0.88;;;;;;;7.50;100.00;99448.22;5011407;28;20378;-76
2023/12/13 11:00:00;;;;;;;3.45;1.00;;;;;;;7.56;100.00;99450.91;5016063;28;20496;-77
2023/12/13 11:02:28;;;;;;;5.28;1.00;;;;;;;7.58;100.00;99448.97;5005143;28;20084;-76
2023/12/13 11:04:54;;;;;;;1.30;0.90;;;;;;;7.62;100.00;99456.38;5003865;28;20073;-76
2023/12/13 11:07:19;;;;;;;3.20;0.82;;;;;;;7.67;100.00;99451.53;4995768;28;20056;-75
2023/12/13 11:09:52;;;;;;;3.38;1.08;;;;;;;7.74;100.00;99455.00;5006383;28;20041;-76
2023/12/13 11:12:21;;;;;;;2.67;1.25;;;;;;;7.74;100.00;99444.69;4986695;28;20026;-76
2023/12/13 11:14:51;;;;;;;4.65;1.80;;;;;;;7.77;100.00;99455.47;5009439;28;20073;-76
2023/12/13 11:17:19;;;;;;;3.30;1.40;;;;;;;7.85;100.00;99457.22;5011403;28;20037;-76
2023/12/13 11:19:45;;;;;;;3.80;1.20;;;;;;;7.93;100.00;99451.19;5008125;28;20088;-76
2023/12/13 11:22:12;;;;;;;1.83;0.90;;;;;;;7.95;100.00;99452.63;5013457;28;20037;-75